createdAt,value
2022-08-26T00:01:03.093Z,8.60
2022-08-26T00:02:04.821Z,8.57
2022-08-26T00:03:06.463Z,8.50
2022-08-26T00:04:10.342Z,8.02
2022-08-26T00:05:12.396Z,8.68
2022-08-26T00:06:14.594Z,8.30
2022-08-26T00:07:22.327Z,8.48
2022-08-26T00:08:24.407Z,8.40
2022-08-26T00:09:26.656Z,9.15
2022-08-26T00:10:28.876Z,8.15
2022-08-26T00:11:30.393Z,7.97
2022-08-26T00:12:37.639Z,8.02
2022-08-26T00:13:39.771Z,8.40
2022-08-26T00:14:49.628Z,7.95
2022-08-26T00:15:51.536Z,8.50
2022-08-26T00:16:53.042Z,8.65
2022-08-26T00:17:56.900Z,8.95
2022-08-26T00:18:58.493Z,8.82
2022-08-26T00:20:00.722Z,8.43
2022-08-26T00:21:06.274Z,8.52
2022-08-26T00:22:08.180Z,8.43
2022-08-26T00:23:09.651Z,8.93
2022-08-26T00:24:11.238Z,8.57
2022-08-26T00:25:14.519Z,8.68
2022-08-26T00:26:18.914Z,8.40
2022-08-26T00:27:22.334Z,8.63
2022-08-26T00:28:24.358Z,8.30
2022-08-26T00:29:26.254Z,8.70
2022-08-26T00:30:30.621Z,8.93
2022-08-26T00:31:32.791Z,8.45
2022-08-26T00:32:35.062Z,8.88
2022-08-26T00:33:40.163Z,8.77
2022-08-26T00:34:42.106Z,9.00
2022-08-26T00:35:45.300Z,8.13
2022-08-26T00:36:47.792Z,8.57
2022-08-26T00:37:54.325Z,8.57
2022-08-26T00:38:56.293Z,9.65
2022-08-26T00:39:58.532Z,9.13
2022-08-26T00:41:02.454Z,9.40
2022-08-26T00:42:04.244Z,9.75
2022-08-26T00:43:09.496Z,8.95
2022-08-26T00:44:11.313Z,8.90
2022-08-26T00:45:15.541Z,8.68
2022-08-26T00:46:21.712Z,8.80
2022-08-26T00:47:37.928Z,9.48
2022-08-26T00:48:43.925Z,9.63
2022-08-26T00:49:47.692Z,8.57
2022-08-26T00:51:18.077Z,8.88
2022-08-26T00:52:21.869Z,8.95
2022-08-26T00:53:30.410Z,9.90
2022-08-26T00:54:40.217Z,8.85
2022-08-26T00:55:43.980Z,8.23
2022-08-26T00:56:53.621Z,9.00
2022-08-26T00:57:55.888Z,8.02
2022-08-26T00:59:01.028Z,8.50
2022-08-26T01:00:08.081Z,8.55
2022-08-26T01:01:11.150Z,8.68
2022-08-26T01:02:20.787Z,8.70
2022-08-26T01:03:25.772Z,9.23
2022-08-26T01:04:29.147Z,8.18
2022-08-26T01:05:30.810Z,9.50
2022-08-26T01:06:32.806Z,9.20
2022-08-26T01:07:35.506Z,8.57
2022-08-26T01:08:37.064Z,8.82
2022-08-26T01:09:39.296Z,8.40
2022-08-26T01:10:42.282Z,8.10
2022-08-26T01:11:47.588Z,8.95
2022-08-26T01:12:55.362Z,9.00
2022-08-26T01:13:59.655Z,8.68
2022-08-26T01:15:02.483Z,8.60
2022-08-26T01:17:08.869Z,9.20
2022-08-26T01:18:12.200Z,8.10
2022-08-26T01:20:36.315Z,8.43
2022-08-26T01:21:55.831Z,9.00
2022-08-26T01:23:01.460Z,8.10
2022-08-26T01:24:06.826Z,8.90
2022-08-26T01:25:08.428Z,8.32
2022-08-26T01:26:19.484Z,8.90
2022-08-26T01:27:22.382Z,8.73
2022-08-26T01:28:29.262Z,8.60
2022-08-26T01:29:33.708Z,8.13
2022-08-26T01:30:38.327Z,9.43
2022-08-26T01:31:46.767Z,9.02
2022-08-26T01:32:50.827Z,8.45
2022-08-26T01:33:55.042Z,8.80
2022-08-26T01:34:57.216Z,9.20
2022-08-26T01:35:58.754Z,8.60
2022-08-26T01:37:08.258Z,9.80
2022-08-26T01:38:15.870Z,8.45
2022-08-26T01:39:17.562Z,9.65
2022-08-26T01:40:25.700Z,9.93
2022-08-26T01:41:29.076Z,9.25
2022-08-26T01:42:31.246Z,9.30
2022-08-26T01:43:34.010Z,9.43
2022-08-26T01:44:41.560Z,8.80
2022-08-26T01:45:45.545Z,9.18
2022-08-26T01:46:50.666Z,8.93
2022-08-26T01:47:56.516Z,8.90
2022-08-26T01:49:02.120Z,9.55
2022-08-26T01:50:09.233Z,8.80
2022-08-26T01:51:13.938Z,9.48
2022-08-26T01:52:22.349Z,9.63
2022-08-26T01:53:26.387Z,9.02
2022-08-26T01:54:28.003Z,8.60
2022-08-26T01:55:33.039Z,9.25
2022-08-26T01:56:36.573Z,8.75
2022-08-26T01:57:38.611Z,8.45
2022-08-26T01:58:44.962Z,9.18
2022-08-26T01:59:49.161Z,9.48
2022-08-26T02:00:51.387Z,9.30
2022-08-26T02:01:53.470Z,8.82
2022-08-26T02:03:18.349Z,10.10
2022-08-26T02:04:22.605Z,8.68
2022-08-26T02:05:24.272Z,8.57
2022-08-26T02:06:25.848Z,12.43
2022-08-26T02:07:28.869Z,15.35
2022-08-26T02:08:36.853Z,10.70
2022-08-26T02:09:41.269Z,11.65
2022-08-26T02:10:44.222Z,17.30
2022-08-26T02:11:46.293Z,22.88
2022-08-26T02:12:50.399Z,22.55
2022-08-26T02:13:59.683Z,17.00
2022-08-26T02:15:05.787Z,10.35
2022-08-26T02:16:08.808Z,9.43
2022-08-26T02:17:11.398Z,9.52
2022-08-26T02:18:14.034Z,8.75
2022-08-26T02:20:21.490Z,8.63
2022-08-26T02:21:25.039Z,8.77
2022-08-26T02:22:28.450Z,9.18
2022-08-26T02:23:30.357Z,9.07
2022-08-26T02:24:56.578Z,9.48
2022-08-26T02:26:12.736Z,9.48
2022-08-26T02:27:23.713Z,10.60
2022-08-26T02:28:28.828Z,9.48
2022-08-26T02:29:35.273Z,9.25
2022-08-26T02:30:40.157Z,9.98
2022-08-26T02:31:42.173Z,9.85
2022-08-26T02:32:44.444Z,9.77
2022-08-26T02:33:46.342Z,9.55
2022-08-26T02:34:47.932Z,9.68
2022-08-26T02:35:49.429Z,9.45
2022-08-26T02:36:51.381Z,9.50
2022-08-26T02:37:53.207Z,9.65
2022-08-26T02:38:55.006Z,9.07
2022-08-26T02:39:57.545Z,9.38
2022-08-26T02:40:59.110Z,10.10
2022-08-26T02:42:00.986Z,9.80
2022-08-26T02:43:03.392Z,9.35
2022-08-26T02:44:07.510Z,9.02
2022-08-26T02:45:10.613Z,9.75
2022-08-26T02:46:12.183Z,12.52
2022-08-26T02:47:24.927Z,17.50
2022-08-26T02:48:26.472Z,17.60
2022-08-26T02:49:29.150Z,15.93
2022-08-26T02:50:30.645Z,13.32
2022-08-26T02:51:32.159Z,18.13
2022-08-26T02:52:34.941Z,20.77
2022-08-26T02:53:36.482Z,17.67
2022-08-26T02:54:38.544Z,12.38
2022-08-26T02:55:40.916Z,10.65
2022-08-26T02:56:44.087Z,9.27
2022-08-26T02:57:45.608Z,8.95
2022-08-26T02:58:47.506Z,9.63
2022-08-26T02:59:49.734Z,9.18
2022-08-26T03:00:53.028Z,9.48
2022-08-26T03:01:56.266Z,9.85
2022-08-26T03:02:59.235Z,10.02
2022-08-26T03:04:03.687Z,10.27
2022-08-26T03:05:06.866Z,10.13
2022-08-26T03:07:10.150Z,10.02
2022-08-26T03:08:11.891Z,10.10
2022-08-26T03:09:18.439Z,9.75
2022-08-26T03:10:21.832Z,9.50
2022-08-26T03:11:24.819Z,11.48
2022-08-26T03:12:27.453Z,9.73
2022-08-26T03:13:29.598Z,10.65
2022-08-26T03:14:31.424Z,9.73
2022-08-26T03:15:33.502Z,9.13
2022-08-26T03:16:36.373Z,9.23
2022-08-26T03:17:38.700Z,9.60
2022-08-26T03:19:42.688Z,9.32
2022-08-26T03:20:44.629Z,8.82
2022-08-26T03:21:47.343Z,9.57
2022-08-26T03:22:51.441Z,9.18
2022-08-26T03:23:52.891Z,9.70
2022-08-26T03:24:54.698Z,10.02
2022-08-26T03:25:56.161Z,9.82
2022-08-26T03:26:57.632Z,10.60
2022-08-26T03:27:59.524Z,10.32
2022-08-26T03:29:19.688Z,10.32
2022-08-26T03:30:44.883Z,9.32
2022-08-26T03:31:47.310Z,9.02
2022-08-26T03:32:48.878Z,9.75
2022-08-26T03:33:51.435Z,9.63
2022-08-26T03:34:53.827Z,9.38
2022-08-26T03:35:55.637Z,11.27
2022-08-26T03:36:58.579Z,10.63
2022-08-26T03:38:00.752Z,9.43
2022-08-26T03:39:03.756Z,9.77
2022-08-26T03:40:09.066Z,10.43
2022-08-26T03:41:12.232Z,11.10
2022-08-26T03:42:15.348Z,9.50
2022-08-26T03:43:17.715Z,9.70
2022-08-26T03:44:19.736Z,9.55
2022-08-26T03:45:21.862Z,8.98
2022-08-26T03:46:23.368Z,10.30
2022-08-26T03:47:28.709Z,10.85
2022-08-26T03:48:30.156Z,9.15
2022-08-26T03:49:31.964Z,9.60
2022-08-26T03:50:35.724Z,10.32
2022-08-26T03:51:38.720Z,9.63
2022-08-26T03:52:43.906Z,9.75
2022-08-26T03:53:46.935Z,9.95
2022-08-26T03:54:49.895Z,9.80
2022-08-26T03:55:51.965Z,10.13
2022-08-26T03:56:53.959Z,10.00
2022-08-26T03:57:56.115Z,9.73
2022-08-26T03:58:57.545Z,10.30
2022-08-26T04:00:00.262Z,10.30
2022-08-26T04:01:01.847Z,11.05
2022-08-26T04:02:03.828Z,10.38
2022-08-26T04:03:18.641Z,9.40
2022-08-26T04:04:22.897Z,9.50
2022-08-26T04:05:26.103Z,8.95
2022-08-26T04:06:39.215Z,9.52
2022-08-26T04:07:41.512Z,9.82
2022-08-26T04:08:43.499Z,9.50
2022-08-26T04:09:45.106Z,8.95
2022-08-26T04:10:46.752Z,9.98
2022-08-26T04:11:50.512Z,9.45
2022-08-26T04:12:52.296Z,9.73
2022-08-26T04:13:54.207Z,9.15
2022-08-26T04:14:57.173Z,10.15
2022-08-26T04:15:59.345Z,9.68
2022-08-26T04:17:01.754Z,9.60
2022-08-26T04:18:03.245Z,9.38
2022-08-26T04:19:05.154Z,9.45
2022-08-26T04:20:07.598Z,9.20
2022-08-26T04:21:12.084Z,9.38
2022-08-26T04:22:24.184Z,9.05
2022-08-26T04:23:26.843Z,12.80
2022-08-26T04:24:28.781Z,11.10
2022-08-26T04:25:30.280Z,10.00
2022-08-26T04:26:39.297Z,10.30
2022-08-26T04:27:41.221Z,10.65
2022-08-26T04:28:42.794Z,10.80
2022-08-26T04:29:46.533Z,13.77
2022-08-26T04:30:49.505Z,13.48
2022-08-26T04:31:57.355Z,11.00
2022-08-26T04:32:58.853Z,9.50
2022-08-26T04:34:00.392Z,10.60
2022-08-26T04:35:01.937Z,9.38
2022-08-26T04:36:05.446Z,8.73
2022-08-26T04:37:07.928Z,8.63
2022-08-26T04:38:09.779Z,9.20
2022-08-26T04:39:12.501Z,9.02
2022-08-26T04:40:14.386Z,9.05
2022-08-26T04:41:17.205Z,8.77
2022-08-26T04:42:23.282Z,9.45
2022-08-26T04:44:36.052Z,9.82
2022-08-26T04:45:40.367Z,9.95
2022-08-26T04:46:43.711Z,9.48
2022-08-26T04:47:46.791Z,9.38
2022-08-26T04:48:51.723Z,9.18
2022-08-26T04:49:57.958Z,9.02
2022-08-26T04:51:00.008Z,8.45
2022-08-26T04:52:01.640Z,9.20
2022-08-26T04:53:04.484Z,9.13
2022-08-26T04:54:08.690Z,9.18
2022-08-26T04:55:10.587Z,9.23
2022-08-26T04:56:13.555Z,9.80
2022-08-26T04:57:15.279Z,9.52
2022-08-26T04:58:20.163Z,10.18
2022-08-26T04:59:21.705Z,9.38
2022-08-26T05:00:23.754Z,8.63
2022-08-26T05:01:28.381Z,9.30
2022-08-26T05:02:31.597Z,9.82
2022-08-26T05:03:35.417Z,8.65
2022-08-26T05:04:37.550Z,9.02
2022-08-26T05:05:41.557Z,9.10
2022-08-26T05:06:43.565Z,8.90
2022-08-26T05:07:45.170Z,9.43
2022-08-26T05:08:47.346Z,9.27
2022-08-26T05:09:49.279Z,9.30
2022-08-26T05:10:56.483Z,9.38
2022-08-26T05:11:58.079Z,9.35
2022-08-26T05:13:00.237Z,9.00
2022-08-26T05:14:02.522Z,9.43
2022-08-26T05:15:04.429Z,9.88
2022-08-26T05:16:11.627Z,8.93
2022-08-26T05:17:14.988Z,9.40
2022-08-26T05:18:20.036Z,9.32
2022-08-26T05:19:21.907Z,9.13
2022-08-26T05:20:26.163Z,10.45
2022-08-26T05:21:29.469Z,8.90
2022-08-26T05:22:30.989Z,9.32
2022-08-26T05:23:35.916Z,9.68
2022-08-26T05:24:37.390Z,9.43
2022-08-26T05:25:41.994Z,9.75
2022-08-26T05:26:44.880Z,9.15
2022-08-26T05:27:46.942Z,9.32
2022-08-26T05:28:49.220Z,9.88
2022-08-26T05:29:54.643Z,10.40
2022-08-26T05:30:57.398Z,10.38
2022-08-26T05:32:00.717Z,9.18
2022-08-26T05:33:02.831Z,9.43
2022-08-26T05:34:04.803Z,10.38
2022-08-26T05:35:08.787Z,11.23
2022-08-26T05:36:13.455Z,9.55
2022-08-26T05:37:15.525Z,10.55
2022-08-26T05:38:21.058Z,10.23
2022-08-26T05:39:23.468Z,9.38
2022-08-26T05:40:25.387Z,9.30
2022-08-26T05:41:34.601Z,9.75
2022-08-26T05:42:38.151Z,10.48
2022-08-26T05:43:39.898Z,10.05
2022-08-26T05:44:55.685Z,10.15
2022-08-26T05:46:06.690Z,10.20
2022-08-26T05:47:08.630Z,10.15
2022-08-26T05:48:10.439Z,9.60
2022-08-26T05:49:13.773Z,10.80
2022-08-26T05:50:15.518Z,9.90
2022-08-26T05:51:17.622Z,9.23
2022-08-26T05:52:19.796Z,9.30
2022-08-26T05:53:25.930Z,9.25
2022-08-26T05:54:27.980Z,9.07
2022-08-26T05:55:29.965Z,8.80
2022-08-26T05:56:31.791Z,9.65
2022-08-26T05:57:37.443Z,10.32
2022-08-26T05:58:42.366Z,9.68
2022-08-26T05:59:43.872Z,10.45
2022-08-26T06:01:04.548Z,10.07
2022-08-26T06:02:07.327Z,10.35
2022-08-26T06:03:09.464Z,9.55
2022-08-26T06:04:12.009Z,10.35
2022-08-26T06:05:13.493Z,9.63
2022-08-26T06:06:27.318Z,9.45
2022-08-26T06:08:52.586Z,9.50
2022-08-26T06:10:01.622Z,10.18
2022-08-26T06:11:19.382Z,11.10
2022-08-26T06:12:24.165Z,11.18
2022-08-26T06:13:27.925Z,14.15
2022-08-26T06:14:33.488Z,11.73
2022-08-26T06:15:35.524Z,13.18
2022-08-26T06:16:41.008Z,13.38
2022-08-26T06:17:43.089Z,14.27
2022-08-26T06:18:46.787Z,14.07
2022-08-26T06:19:48.294Z,12.40
2022-08-26T06:20:57.058Z,10.88
2022-08-26T06:22:22.431Z,10.93
2022-08-26T06:23:46.886Z,10.55
2022-08-26T06:25:06.652Z,10.38
2022-08-26T06:27:14.014Z,9.40
2022-08-26T06:28:17.675Z,9.85
2022-08-26T06:29:23.657Z,9.90
2022-08-26T06:30:26.413Z,10.05
2022-08-26T06:31:28.921Z,10.80
2022-08-26T06:32:30.782Z,10.63
2022-08-26T06:33:32.912Z,10.07
2022-08-26T06:34:34.482Z,9.77
2022-08-26T06:35:38.240Z,9.57
2022-08-26T06:36:41.759Z,10.35
2022-08-26T06:37:45.440Z,9.70
2022-08-26T06:38:49.297Z,10.52
2022-08-26T06:39:51.266Z,10.02
2022-08-26T06:40:55.095Z,9.60
2022-08-26T06:41:56.940Z,9.88
2022-08-26T06:42:58.798Z,8.82
2022-08-26T06:44:01.295Z,10.35
2022-08-26T06:45:02.811Z,9.70
2022-08-26T06:46:08.777Z,8.88
2022-08-26T06:47:10.699Z,9.57
2022-08-26T06:48:15.365Z,8.82
2022-08-26T06:49:17.300Z,9.57
2022-08-26T06:50:19.052Z,9.73
2022-08-26T06:51:23.745Z,8.63
2022-08-26T06:52:25.457Z,9.77
2022-08-26T06:53:27.819Z,9.27
2022-08-26T06:54:32.451Z,8.75
2022-08-26T06:55:46.150Z,8.80
2022-08-26T06:56:47.780Z,9.88
2022-08-26T06:57:49.506Z,9.55
2022-08-26T06:58:52.409Z,8.57
2022-08-26T06:59:53.908Z,9.63
2022-08-26T07:00:58.461Z,8.95
2022-08-26T07:02:02.599Z,8.32
2022-08-26T07:03:06.184Z,9.25
2022-08-26T07:04:10.722Z,8.68
2022-08-26T07:05:12.314Z,9.10
2022-08-26T07:06:14.916Z,9.90
2022-08-26T07:07:18.100Z,9.52
2022-08-26T07:08:23.942Z,10.00
2022-08-26T07:09:29.611Z,10.13
2022-08-26T07:10:31.408Z,9.68
2022-08-26T07:11:34.755Z,8.80
2022-08-26T07:12:36.565Z,10.32
2022-08-26T07:13:38.760Z,12.55
2022-08-26T07:14:41.347Z,17.30
2022-08-26T07:15:49.461Z,15.52
2022-08-26T07:16:59.425Z,13.98
2022-08-26T07:18:01.238Z,13.52
2022-08-26T07:19:10.828Z,11.77
2022-08-26T07:20:13.142Z,11.52
2022-08-26T07:21:17.310Z,10.35
2022-08-26T07:22:19.895Z,9.35
2022-08-26T07:23:22.790Z,9.35
2022-08-26T07:24:24.923Z,9.63
2022-08-26T07:25:29.997Z,9.57
2022-08-26T07:26:31.745Z,9.13
2022-08-26T07:27:35.206Z,9.43
2022-08-26T07:28:37.123Z,9.23
2022-08-26T07:29:40.600Z,9.82
2022-08-26T07:30:42.200Z,8.85
2022-08-26T07:31:44.578Z,9.20
2022-08-26T07:32:46.074Z,9.95
2022-08-26T07:33:48.730Z,9.25
2022-08-26T07:35:51.971Z,9.30
2022-08-26T07:36:53.748Z,10.18
2022-08-26T07:37:57.256Z,9.65
2022-08-26T07:38:59.407Z,9.02
2022-08-26T07:40:01.019Z,9.25
2022-08-26T07:41:03.035Z,9.48
2022-08-26T07:42:07.783Z,9.20
2022-08-26T07:43:09.965Z,9.25
2022-08-26T07:44:12.598Z,9.90
2022-08-26T07:45:14.358Z,9.52
2022-08-26T07:47:29.289Z,9.20
2022-08-26T07:48:31.293Z,8.75
2022-08-26T07:49:36.270Z,9.23
2022-08-26T07:50:49.564Z,9.88
2022-08-26T07:51:53.288Z,10.93
2022-08-26T07:52:56.161Z,9.65
2022-08-26T07:53:58.593Z,11.15
2022-08-26T07:55:02.210Z,11.68
2022-08-26T07:56:05.021Z,10.25
2022-08-26T07:58:11.815Z,11.65
2022-08-26T07:59:15.056Z,9.15
2022-08-26T08:00:17.897Z,8.98
2022-08-26T08:01:21.571Z,8.32
2022-08-26T08:02:24.942Z,8.80
2022-08-26T08:03:26.372Z,9.30
2022-08-26T08:04:28.772Z,8.65
2022-08-26T08:05:33.680Z,8.70
2022-08-26T08:06:35.415Z,8.88
2022-08-26T08:07:44.656Z,8.57
2022-08-26T08:08:47.545Z,9.00
2022-08-26T08:09:51.483Z,8.60
2022-08-26T08:10:53.392Z,8.50
2022-08-26T08:11:54.928Z,8.73
2022-08-26T08:12:57.579Z,8.82
2022-08-26T08:14:01.092Z,9.02
2022-08-26T08:15:03.247Z,8.43
2022-08-26T08:16:05.773Z,8.05
2022-08-26T08:17:07.361Z,8.20
2022-08-26T08:18:15.503Z,8.93
2022-08-26T08:19:17.734Z,8.32
2022-08-26T08:20:19.791Z,8.30
2022-08-26T08:21:23.881Z,8.75
2022-08-26T08:22:25.948Z,8.15
2022-08-26T08:23:29.221Z,8.63
2022-08-26T08:24:33.632Z,7.82
2022-08-26T08:25:35.237Z,7.93
2022-08-26T08:26:37.135Z,7.70
2022-08-26T08:27:40.234Z,7.90
2022-08-26T08:28:41.836Z,7.78
2022-08-26T08:29:43.621Z,8.60
2022-08-26T08:30:45.123Z,7.68
2022-08-26T08:31:58.341Z,7.90
2022-08-26T08:33:00.180Z,9.75
2022-08-26T08:34:01.752Z,7.97
2022-08-26T08:35:10.889Z,7.97
2022-08-26T08:36:18.374Z,9.10
2022-08-26T08:37:20.171Z,8.15
2022-08-26T08:38:22.850Z,7.85
2022-08-26T08:39:26.308Z,8.95
2022-08-26T08:40:29.333Z,8.35
2022-08-26T08:41:57.919Z,8.57
2022-08-26T08:43:06.412Z,7.75
2022-08-26T08:44:21.257Z,8.30
2022-08-26T08:45:42.744Z,7.90
2022-08-26T08:46:53.535Z,8.18
2022-08-26T08:47:58.044Z,8.07
2022-08-26T08:48:59.973Z,7.78
2022-08-26T08:50:28.663Z,7.63
2022-08-26T08:51:40.129Z,7.63
2022-08-26T08:52:45.506Z,7.57
2022-08-26T08:53:49.604Z,7.43
2022-08-26T08:54:56.925Z,8.07
2022-08-26T08:56:11.007Z,8.95
2022-08-26T08:57:19.991Z,7.20
2022-08-26T08:58:28.313Z,8.18
2022-08-26T08:59:38.282Z,7.50
2022-08-26T09:00:50.213Z,7.82
2022-08-26T09:02:06.446Z,8.93
2022-08-26T09:03:40.697Z,8.30
2022-08-26T09:05:02.318Z,7.85
2022-08-26T09:06:17.267Z,7.65
2022-08-26T09:07:36.979Z,7.55
2022-08-26T09:08:41.265Z,7.43
2022-08-26T09:09:52.670Z,7.78
2022-08-26T09:10:57.785Z,8.10
2022-08-26T09:12:01.719Z,7.60
2022-08-26T09:13:16.801Z,7.95
2022-08-26T09:14:18.750Z,7.82
2022-08-26T09:15:51.928Z,7.78
2022-08-26T09:17:08.555Z,7.90
2022-08-26T09:18:29.084Z,8.18
2022-08-26T09:19:41.021Z,8.13
2022-08-26T09:21:01.080Z,7.53
2022-08-26T09:22:05.873Z,7.85
2022-08-26T09:23:11.073Z,7.75
2022-08-26T09:24:14.014Z,8.13
2022-08-26T09:25:15.972Z,8.13
2022-08-26T09:26:24.755Z,8.13
2022-08-26T09:27:51.929Z,8.15
2022-08-26T09:29:05.673Z,7.90
2022-08-26T09:30:11.548Z,7.50
2022-08-26T09:31:25.430Z,7.90
2022-08-26T09:32:30.109Z,8.10
2022-08-26T09:33:32.604Z,8.07
2022-08-26T09:34:34.104Z,7.57
2022-08-26T09:35:41.825Z,8.23
2022-08-26T09:36:58.608Z,7.70
2022-08-26T09:38:00.416Z,8.80
2022-08-26T09:39:03.027Z,7.70
2022-08-26T09:40:34.674Z,10.20
2022-08-26T09:41:37.329Z,7.97
2022-08-26T09:42:38.809Z,7.95
2022-08-26T09:43:41.606Z,7.28
2022-08-26T09:44:52.221Z,7.75
2022-08-26T09:46:09.601Z,7.38
2022-08-26T09:47:12.941Z,7.70
2022-08-26T09:48:26.344Z,7.32
2022-08-26T09:49:35.529Z,7.70
2022-08-26T09:50:40.967Z,7.55
2022-08-26T09:51:42.800Z,7.18
2022-08-26T09:52:44.581Z,7.78
2022-08-26T09:53:57.692Z,8.00
2022-08-26T09:55:05.411Z,8.02
2022-08-26T09:56:39.683Z,7.40
2022-08-26T09:57:51.091Z,10.10
2022-08-26T09:58:53.763Z,10.80
2022-08-26T09:59:55.316Z,10.63
2022-08-26T10:00:59.340Z,8.68
2022-08-26T10:02:19.734Z,8.57
2022-08-26T10:03:27.680Z,8.20
2022-08-26T10:04:33.430Z,7.60
2022-08-26T10:05:54.418Z,7.53
2022-08-26T10:07:01.974Z,7.22
2022-08-26T10:08:24.305Z,6.50
2022-08-26T10:09:28.142Z,7.03
2022-08-26T10:10:45.291Z,6.97
2022-08-26T10:11:49.679Z,7.50
2022-08-26T10:13:06.467Z,6.90
2022-08-26T10:14:13.558Z,6.80
2022-08-26T10:15:15.829Z,6.75
2022-08-26T10:16:25.975Z,6.65
2022-08-26T10:17:39.866Z,6.72
2022-08-26T10:19:09.264Z,7.30
2022-08-26T10:20:34.851Z,6.40
2022-08-26T10:21:52.261Z,6.20
2022-08-26T10:23:02.089Z,6.68
2022-08-26T10:24:07.287Z,6.75
2022-08-26T10:26:28.358Z,6.72
2022-08-26T10:27:49.733Z,6.55
2022-08-26T10:29:08.898Z,6.20
2022-08-26T10:30:14.892Z,6.78
2022-08-26T10:31:40.733Z,7.07
2022-08-26T10:33:13.315Z,7.55
2022-08-26T10:34:16.975Z,6.78
2022-08-26T10:35:19.444Z,6.70
2022-08-26T10:37:05.155Z,6.57
2022-08-26T10:38:11.328Z,6.45
2022-08-26T10:39:23.806Z,6.75
2022-08-26T10:40:57.936Z,6.38
2022-08-26T10:42:07.605Z,6.32
2022-08-26T10:43:19.134Z,6.65
2022-08-26T10:44:21.718Z,6.32
2022-08-26T10:45:30.166Z,6.82
2022-08-26T10:46:45.878Z,6.22
2022-08-26T10:47:54.011Z,6.20
2022-08-26T10:49:01.566Z,6.18
2022-08-26T10:50:05.605Z,5.95
2022-08-26T10:51:11.456Z,6.05
2022-08-26T10:52:29.319Z,5.95
2022-08-26T10:53:59.739Z,5.75
2022-08-26T10:55:19.822Z,5.53
2022-08-26T10:56:43.786Z,5.60
2022-08-26T10:58:04.716Z,6.00
2022-08-26T10:59:29.498Z,5.38
2022-08-26T11:00:57.250Z,5.40
2022-08-26T11:02:11.399Z,5.30
2022-08-26T11:03:28.954Z,5.53
2022-08-26T11:04:48.332Z,4.90
2022-08-26T11:06:19.996Z,5.75
2022-08-26T11:07:46.333Z,5.32
2022-08-26T11:08:54.797Z,6.07
2022-08-26T11:09:57.931Z,5.47
2022-08-26T11:11:00.178Z,5.47
2022-08-26T11:12:06.842Z,5.53
2022-08-26T11:13:12.147Z,5.65
2022-08-26T11:14:28.699Z,5.85
2022-08-26T11:15:31.229Z,6.05
2022-08-26T11:16:45.387Z,4.93
2022-08-26T11:17:48.650Z,5.68
2022-08-26T11:18:54.656Z,5.93
2022-08-26T11:20:03.872Z,5.55
2022-08-26T11:21:49.479Z,5.40
2022-08-26T11:22:54.388Z,5.43
2022-08-26T11:23:57.154Z,5.00
2022-08-26T11:26:09.970Z,6.25
2022-08-26T11:27:35.462Z,5.30
2022-08-26T11:28:47.883Z,5.55
2022-08-26T11:30:01.739Z,5.10
2022-08-26T11:31:08.634Z,5.50
2022-08-26T11:32:25.787Z,5.60
2022-08-26T11:33:51.022Z,5.28
2022-08-26T11:34:59.259Z,5.28
2022-08-26T11:36:11.502Z,5.72
2022-08-26T11:37:18.063Z,5.63
2022-08-26T11:38:28.579Z,5.35
2022-08-26T11:39:54.003Z,5.65
2022-08-26T11:41:09.860Z,5.20
2022-08-26T11:42:29.952Z,5.80
2022-08-26T11:43:32.609Z,5.20
2022-08-26T11:44:41.075Z,4.90
2022-08-26T11:46:07.542Z,5.32
2022-08-26T11:47:14.734Z,5.80
2022-08-26T11:48:20.141Z,5.55
2022-08-26T11:49:23.267Z,5.70
2022-08-26T11:50:27.644Z,5.65
2022-08-26T11:51:31.956Z,5.32
2022-08-26T11:52:33.527Z,5.25
2022-08-26T11:53:38.692Z,5.80
2022-08-26T11:54:40.441Z,5.22
2022-08-26T11:55:44.897Z,4.85
2022-08-26T11:56:51.050Z,5.63
2022-08-26T11:58:01.282Z,5.45
2022-08-26T11:59:09.732Z,5.82
2022-08-26T12:00:23.430Z,4.72
2022-08-26T12:01:32.387Z,5.85
2022-08-26T12:03:48.591Z,5.18
2022-08-26T12:04:52.828Z,5.10
2022-08-26T12:05:57.351Z,4.88
2022-08-26T12:08:12.576Z,4.55
2022-08-26T12:09:21.563Z,5.07
2022-08-26T12:10:33.609Z,4.95
2022-08-26T12:11:36.942Z,4.68
2022-08-26T12:12:40.547Z,5.35
2022-08-26T12:13:42.726Z,5.07
2022-08-26T12:14:45.135Z,5.10
2022-08-26T12:15:59.574Z,5.10
2022-08-26T12:17:19.369Z,5.15
2022-08-26T12:18:31.586Z,4.90
2022-08-26T12:19:33.834Z,5.35
2022-08-26T12:20:48.348Z,5.32
2022-08-26T12:21:50.672Z,5.53
2022-08-26T12:22:53.288Z,5.28
2022-08-26T12:23:58.030Z,5.05
2022-08-26T12:25:02.710Z,5.82
2022-08-26T12:26:07.371Z,4.90
2022-08-26T12:27:16.373Z,5.82
2022-08-26T12:28:18.715Z,5.15
2022-08-26T12:29:28.201Z,5.20
2022-08-26T12:30:30.047Z,5.38
2022-08-26T12:31:39.391Z,4.97
2022-08-26T12:32:57.301Z,5.40
2022-08-26T12:34:04.079Z,5.78
2022-08-26T12:35:14.839Z,5.50
2022-08-26T12:36:32.077Z,5.22
2022-08-26T12:37:37.616Z,5.32
2022-08-26T12:39:44.864Z,5.03
2022-08-26T12:40:47.329Z,5.30
2022-08-26T12:41:54.786Z,5.05
2022-08-26T12:43:00.615Z,4.88
2022-08-26T12:44:02.490Z,5.05
2022-08-26T12:45:06.712Z,4.65
2022-08-26T12:46:12.688Z,5.00
2022-08-26T12:47:42.388Z,4.65
2022-08-26T12:48:49.326Z,4.38
2022-08-26T12:50:19.419Z,3.75
2022-08-26T12:51:26.668Z,3.88
2022-08-26T12:52:31.900Z,4.07
2022-08-26T12:53:41.893Z,4.10
2022-08-26T12:55:02.442Z,3.83
2022-08-26T12:56:19.644Z,3.30
2022-08-26T12:57:27.882Z,3.63
2022-08-26T12:58:34.102Z,3.50
2022-08-26T12:59:35.560Z,3.25
2022-08-26T13:00:40.756Z,3.60
2022-08-26T13:01:45.024Z,3.47
2022-08-26T13:02:46.594Z,3.30
2022-08-26T13:03:51.231Z,3.50
2022-08-26T13:05:00.895Z,4.38
2022-08-26T13:06:20.726Z,4.00
2022-08-26T13:07:24.223Z,5.15
2022-08-26T13:08:28.166Z,4.55
2022-08-26T13:09:31.406Z,4.78
2022-08-26T13:10:36.228Z,5.22
2022-08-26T13:11:40.798Z,5.20
2022-08-26T13:12:42.559Z,4.80
2022-08-26T13:13:45.970Z,5.40
2022-08-26T13:14:48.840Z,5.15
2022-08-26T13:15:50.449Z,5.63
2022-08-26T13:16:53.078Z,5.07
2022-08-26T13:17:54.518Z,5.22
2022-08-26T13:19:03.270Z,5.10
2022-08-26T13:20:05.118Z,5.38
2022-08-26T13:21:13.122Z,5.47
2022-08-26T13:22:19.114Z,5.80
2022-08-26T13:23:23.331Z,5.20
2022-08-26T13:24:34.350Z,5.10
2022-08-26T13:25:35.855Z,5.35
2022-08-26T13:26:38.772Z,4.93
2022-08-26T13:27:40.372Z,5.65
2022-08-26T13:28:42.406Z,4.95
2022-08-26T13:29:44.248Z,5.15
2022-08-26T13:30:49.651Z,5.00
2022-08-26T13:31:51.563Z,5.18
2022-08-26T13:32:59.776Z,5.57
2022-08-26T13:34:04.593Z,5.07
2022-08-26T13:35:06.990Z,5.55
2022-08-26T13:36:08.876Z,5.55
2022-08-26T13:37:10.380Z,5.45
2022-08-26T13:38:33.147Z,5.47
2022-08-26T13:39:35.736Z,5.47
2022-08-26T13:40:37.245Z,6.20
2022-08-26T13:41:38.984Z,5.53
2022-08-26T13:42:49.431Z,6.05
2022-08-26T13:43:51.511Z,5.60
2022-08-26T13:44:58.303Z,6.53
2022-08-26T13:46:01.501Z,5.30
2022-08-26T13:47:03.007Z,5.32
2022-08-26T13:48:06.309Z,5.93
2022-08-26T13:49:07.907Z,5.10
2022-08-26T13:50:09.764Z,5.18
2022-08-26T13:51:12.002Z,5.45
2022-08-26T13:52:13.671Z,5.47
2022-08-26T13:53:17.292Z,5.30
2022-08-26T13:54:18.816Z,5.80
2022-08-26T13:55:20.706Z,5.95
2022-08-26T13:56:23.006Z,6.30
2022-08-26T13:57:24.814Z,5.47
2022-08-26T13:58:27.052Z,6.03
2022-08-26T13:59:28.611Z,5.90
2022-08-26T14:00:33.750Z,5.90
2022-08-26T14:01:36.229Z,5.63
2022-08-26T14:02:37.940Z,5.57
2022-08-26T14:03:39.457Z,5.78
2022-08-26T14:04:40.961Z,5.82
2022-08-26T14:05:42.772Z,5.47
2022-08-26T14:06:44.622Z,5.28
2022-08-26T14:07:49.291Z,5.53
2022-08-26T14:08:51.193Z,5.03
2022-08-26T14:09:52.793Z,5.45
2022-08-26T14:10:54.609Z,4.82
2022-08-26T14:11:57.344Z,5.45
2022-08-26T14:12:59.634Z,5.38
2022-08-26T14:14:01.152Z,5.00
2022-08-26T14:15:02.661Z,5.40
2022-08-26T14:16:07.882Z,4.97
2022-08-26T14:17:09.928Z,5.30
2022-08-26T14:18:16.879Z,5.18
2022-08-26T14:19:18.456Z,5.10
2022-08-26T14:20:29.472Z,4.78
2022-08-26T14:21:33.489Z,4.95
2022-08-26T14:22:40.415Z,4.43
2022-08-26T14:23:45.275Z,4.63
2022-08-26T14:24:46.804Z,4.68
2022-08-26T14:25:48.346Z,4.30
2022-08-26T14:26:49.900Z,4.40
2022-08-26T14:27:53.137Z,4.38
2022-08-26T14:28:55.227Z,3.92
2022-08-26T14:29:57.190Z,4.68
2022-08-26T14:31:01.023Z,4.65
2022-08-26T14:32:11.410Z,4.20
2022-08-26T14:33:14.907Z,4.60
2022-08-26T14:34:16.483Z,4.90
2022-08-26T14:35:22.285Z,4.38
2022-08-26T14:36:31.300Z,4.07
2022-08-26T14:37:33.336Z,4.75
2022-08-26T14:38:34.810Z,4.70
2022-08-26T14:39:37.085Z,4.70
2022-08-26T14:40:40.500Z,4.18
2022-08-26T14:41:55.168Z,4.18
2022-08-26T14:42:58.900Z,4.20
2022-08-26T14:44:13.857Z,4.38
2022-08-26T14:45:19.672Z,4.53
2022-08-26T14:46:21.214Z,4.18
2022-08-26T14:47:22.828Z,4.80
2022-08-26T14:48:24.293Z,4.40
2022-08-26T14:49:27.260Z,4.10
2022-08-26T14:50:29.133Z,4.85
2022-08-26T14:51:30.597Z,4.57
2022-08-26T14:52:52.008Z,4.20